Time;durP1;ratioP1;P1;durP2;ratioP2;P2;SDS_P1;SDS_P2;PMS_P1;PMS_P2;Temp;Humidity;BMP_temperature;BMP_pressure;BME280_temperature;BME280_humidity;BME280_pressure;Samples;Min_cycle;Max_cycle;Signal;HPM_P1;HPM_P2
2021/12/01 00:01:12;;;;;;;6.10;4.23;;;;;;;;;;5050756;28;20250;-88
2021/12/01 00:03:41;;;;;;;4.40;2.67;;;;;;;;;;5049687;28;20222;-88
2021/12/01 00:06:10;;;;;;;3.00;2.53;;;;;;;;;;5050772;28;20206;-88
2021/12/01 00:08:37;;;;;;;4.67;3.67;;;;;;;;;;5050738;28;20198;-88
2021/12/01 00:11:05;;;;;;;5.13;4.57;;;;;;;;;;5049718;28;20267;-87
2021/12/01 00:13:33;;;;;;;4.47;3.80;;;;;;;;;;5051192;28;20273;-88
2021/12/01 00:16:01;;;;;;;3.93;3.53;;;;;;;;;;5050691;28;20197;-87
2021/12/01 00:18:31;;;;;;;3.67;3.37;;;;;;;;;;5051037;28;20198;-87
2021/12/01 00:20:59;;;;;;;3.60;3.30;;;;;;;;;;5050430;28;20189;-87
2021/12/01 00:23:27;;;;;;;3.70;3.27;;;;;;;;;;5050461;28;20186;-88
2021/12/01 00:25:55;;;;;;;2.83;2.63;;;;;;;;;;5050377;28;20202;-88
2021/12/01 00:28:23;;;;;;;3.37;2.93;;;;;;;;;;5050581;28;20277;-88
2021/12/01 00:30:50;;;;;;;2.60;2.40;;;;;;;;;;5050379;28;20685;-88
2021/12/01 00:33:22;;;;;;;5.97;4.13;;;;;;;;;;5050117;28;20194;-88
2021/12/01 00:35:52;;;;;;;8.57;6.17;;;;;;;;;;5050267;28;20194;-86
2021/12/01 00:38:19;;;;;;;4.77;4.37;;;;;;;;;;5050853;28;20214;-87
2021/12/01 00:40:46;;;;;;;5.73;4.63;;;;;;;;;;5050246;28;20199;-86
2021/12/01 00:43:17;;;;;;;5.00;4.10;;;;;;;;;;5050410;28;20574;-87
2021/12/01 00:45:50;;;;;;;4.77;4.33;;;;;;;;;;5050163;28;20213;-87
2021/12/01 00:48:18;;;;;;;4.83;4.20;;;;;;;;;;5049995;28;20661;-87
2021/12/01 00:50:46;;;;;;;7.00;4.77;;;;;;;;;;5049610;28;20261;-87
2021/12/01 00:53:15;;;;;;;4.93;4.17;;;;;;;;;;5049889;28;20202;-87
2021/12/01 00:55:43;;;;;;;4.17;3.70;;;;;;;;;;5050145;28;20596;-87
2021/12/01 00:58:12;;;;;;;3.80;3.47;;;;;;;;;;5049941;28;20231;-87
2021/12/01 01:00:40;;;;;;;4.00;3.43;;;;;;;;;;5049579;28;20259;-87
2021/12/01 01:03:08;;;;;;;4.57;3.70;;;;;;;;;;5049789;28;20293;-87
2021/12/01 01:05:36;;;;;;;3.60;3.30;;;;;;;;;;5050049;28;20297;-87
2021/12/01 01:08:04;;;;;;;5.10;3.37;;;;;;;;;;5049693;28;20229;-88
2021/12/01 01:16:26;;;;;;;4.00;3.50;;;;;;;;;;4969276;28;20208;-86
2021/12/01 01:18:59;;;;;;;3.20;2.90;;;;;;;;;;4969340;28;20280;-85
2021/12/01 01:21:29;;;;;;;3.60;3.30;;;;;;;;;;5013427;28;20666;-86
2021/12/01 01:23:56;;;;;;;3.80;3.30;;;;;;;;;;5049305;28;20222;-86
2021/12/01 01:26:26;;;;;;;3.37;3.13;;;;;;;;;;5049346;28;20194;-86
2021/12/01 01:28:53;;;;;;;3.30;3.00;;;;;;;;;;5049445;28;20237;-86
2021/12/01 01:31:21;;;;;;;4.10;3.70;;;;;;;;;;5049511;28;20281;-86
2021/12/01 01:33:49;;;;;;;4.10;3.57;;;;;;;;;;5049359;28;20202;-86
2021/12/01 01:36:16;;;;;;;4.87;3.40;;;;;;;;;;5049586;28;20194;-86
2021/12/01 01:38:44;;;;;;;4.10;3.27;;;;;;;;;;5049681;28;20202;-86
2021/12/01 01:41:13;;;;;;;5.10;3.63;;;;;;;;;;5049401;28;20666;-86
2021/12/01 01:43:44;;;;;;;4.17;3.10;;;;;;;;;;5049408;28;20285;-87
2021/12/01 01:46:12;;;;;;;3.93;3.27;;;;;;;;;;5049137;28;20221;-86
2021/12/01 01:48:50;;;;;;;3.90;3.10;;;;;;;;;;5049018;28;20208;-86
2021/12/01 01:51:20;;;;;;;3.20;2.90;;;;;;;;;;5048961;28;20275;-86
2021/12/01 01:53:49;;;;;;;3.27;2.97;;;;;;;;;;5049256;28;20222;-86
2021/12/01 01:56:16;;;;;;;4.97;3.30;;;;;;;;;;5048966;28;20709;-87
2021/12/01 01:58:46;;;;;;;5.17;3.67;;;;;;;;;;5049163;28;20258;-86
2021/12/01 02:01:23;;;;;;;3.53;3.13;;;;;;;;;;5049098;28;20255;-86
2021/12/01 02:03:50;;;;;;;4.43;3.10;;;;;;;;;;5049210;28;20193;-86
2021/12/01 02:06:22;;;;;;;3.60;3.30;;;;;;;;;;5049135;28;20198;-86
2021/12/01 02:08:50;;;;;;;2.87;2.67;;;;;;;;;;5049332;28;20614;-86
2021/12/01 02:11:19;;;;;;;4.33;3.00;;;;;;;;;;5049033;28;20743;-86
2021/12/01 02:13:48;;;;;;;3.90;3.40;;;;;;;;;;5048717;28;20202;-86
2021/12/01 02:16:16;;;;;;;3.40;3.10;;;;;;;;;;5048699;28;20241;-86
2021/12/01 02:18:44;;;;;;;3.63;3.33;;;;;;;;;;5048961;28;20201;-86
2021/12/01 02:21:15;;;;;;;3.30;3.00;;;;;;;;;;5048503;28;20205;-86
2021/12/01 02:23:44;;;;;;;5.07;4.40;;;;;;;;;;5051865;28;20217;-86
2021/12/01 02:26:12;;;;;;;3.90;3.60;;;;;;;;;;5051847;28;20297;-86
2021/12/01 02:28:41;;;;;;;3.97;3.57;;;;;;;;;;5052343;28;20208;-86
2021/12/01 02:31:09;;;;;;;4.17;3.77;;;;;;;;;;5052428;28;20270;-86
2021/12/01 02:33:36;;;;;;;4.13;3.73;;;;;;;;;;5052390;28;20237;-87
2021/12/01 02:36:05;;;;;;;4.23;3.83;;;;;;;;;;5052012;28;20194;-87
2021/12/01 02:38:34;;;;;;;3.63;3.33;;;;;;;;;;5052248;28;20198;-86
2021/12/01 02:41:02;;;;;;;3.63;3.30;;;;;;;;;;5052256;28;20642;-86
2021/12/01 02:43:30;;;;;;;3.20;2.90;;;;;;;;;;5052087;28;20202;-86
2021/12/01 02:45:57;;;;;;;5.43;4.07;;;;;;;;;;5051525;28;20213;-87
2021/12/01 02:48:25;;;;;;;3.50;3.23;;;;;;;;;;5051927;28;20205;-86
2021/12/01 02:50:53;;;;;;;3.23;2.90;;;;;;;;;;5036730;28;20239;-87
2021/12/01 02:53:22;;;;;;;5.27;3.67;;;;;;;;;;5031837;28;20210;-86
2021/12/01 02:55:54;;;;;;;5.83;3.63;;;;;;;;;;5031865;28;20198;-86
2021/12/01 02:58:22;;;;;;;3.70;3.40;;;;;;;;;;5031758;28;20191;-85
2021/12/01 03:00:49;;;;;;;3.87;3.57;;;;;;;;;;5031007;28;20245;-86
2021/12/01 03:03:18;;;;;;;5.07;3.23;;;;;;;;;;5036519;28;20661;-85
2021/12/01 03:05:47;;;;;;;4.00;3.60;;;;;;;;;;5051293;28;20257;-86
2021/12/01 03:08:15;;;;;;;3.23;2.93;;;;;;;;;;5051366;28;20237;-85
2021/12/01 03:10:45;;;;;;;8.60;5.30;;;;;;;;;;5051004;28;20216;-86
2021/12/01 03:13:15;;;;;;;3.90;3.60;;;;;;;;;;5033788;28;20199;-85
2021/12/01 03:15:42;;;;;;;4.77;3.60;;;;;;;;;;5037986;28;20242;-86
2021/12/01 03:18:10;;;;;;;3.50;3.20;;;;;;;;;;5045923;28;20294;-85
2021/12/01 03:20:37;;;;;;;3.27;3.00;;;;;;;;;;5031274;28;20199;-86
2021/12/01 03:23:05;;;;;;;3.23;2.90;;;;;;;;;;5031089;28;20243;-85
2021/12/01 03:25:32;;;;;;;3.27;2.93;;;;;;;;;;5030846;28;20229;-86
2021/12/01 03:27:59;;;;;;;3.40;3.10;;;;;;;;;;5034110;28;20234;-85
2021/12/01 03:30:33;;;;;;;3.43;3.13;;;;;;;;;;5031339;28;20206;-85
2021/12/01 03:33:01;;;;;;;5.70;3.03;;;;;;;;;;5030604;28;20244;-84
2021/12/01 03:35:28;;;;;;;3.40;3.10;;;;;;;;;;5030749;28;20679;-85
2021/12/01 03:37:56;;;;;;;3.33;3.03;;;;;;;;;;5030903;28;20202;-85
2021/12/01 03:40:23;;;;;;;4.40;3.33;;;;;;;;;;5030895;28;20238;-86
2021/12/01 03:42:51;;;;;;;4.73;3.57;;;;;;;;;;5035824;28;20631;-86
2021/12/01 03:45:18;;;;;;;4.67;3.47;;;;;;;;;;5036658;28;20233;-86
2021/12/01 03:47:47;;;;;;;4.30;3.23;;;;;;;;;;5030946;28;20199;-86
2021/12/01 03:50:15;;;;;;;6.07;3.60;;;;;;;;;;5030562;28;20243;-86
2021/12/01 03:52:42;;;;;;;3.90;3.47;;;;;;;;;;5030722;28;20195;-86
2021/12/01 03:55:11;;;;;;;9.53;3.67;;;;;;;;;;5035001;27;20294;-86
2021/12/01 03:57:38;;;;;;;4.40;3.57;;;;;;;;;;5040384;28;20657;-85
2021/12/01 04:00:08;;;;;;;3.37;3.07;;;;;;;;;;5050355;28;20281;-86
2021/12/01 04:02:35;;;;;;;3.90;3.10;;;;;;;;;;5050658;28;20202;-86
2021/12/01 04:05:05;;;;;;;6.20;4.40;;;;;;;;;;5050219;28;20261;-86
2021/12/01 04:07:32;;;;;;;3.63;3.33;;;;;;;;;;5050643;28;20649;-86
2021/12/01 04:09:59;;;;;;;5.97;4.20;;;;;;;;;;5050481;28;20194;-86
2021/12/01 04:12:27;;;;;;;6.20;4.50;;;;;;;;;;5050368;28;20237;-86
2021/12/01 04:14:54;;;;;;;3.77;3.40;;;;;;;;;;5050390;28;20251;-86
2021/12/01 04:17:22;;;;;;;3.67;3.30;;;;;;;;;;5050273;28;20215;-87
2021/12/01 04:19:49;;;;;;;3.80;3.17;;;;;;;;;;5049889;28;20213;-87
2021/12/01 04:22:18;;;;;;;2.60;2.40;;;;;;;;;;5049993;28;20202;-86
2021/12/01 04:24:45;;;;;;;3.27;2.97;;;;;;;;;;5049858;28;20293;-86
2021/12/01 04:27:12;;;;;;;3.07;2.77;;;;;;;;;;5049945;28;20238;-86
2021/12/01 04:29:40;;;;;;;2.60;2.40;;;;;;;;;;5050135;28;20263;-86
2021/12/01 04:32:09;;;;;;;5.43;4.70;;;;;;;;;;5049893;28;20209;-86
2021/12/01 04:34:36;;;;;;;3.43;3.13;;;;;;;;;;5049662;28;20228;-86
2021/12/01 04:37:04;;;;;;;3.57;2.67;;;;;;;;;;5049680;28;20204;-87
2021/12/01 04:39:33;;;;;;;3.97;3.20;;;;;;;;;;5049805;28;20282;-86
2021/12/01 04:42:05;;;;;;;2.23;2.03;;;;;;;;;;5049512;28;20223;-86
2021/12/01 04:44:34;;;;;;;2.53;2.10;;;;;;;;;;5048828;28;20222;-87
2021/12/01 04:47:02;;;;;;;1.60;1.50;;;;;;;;;;5049245;28;20255;-86
2021/12/01 04:49:31;;;;;;;2.00;1.80;;;;;;;;;;5049712;28;20288;-86
2021/12/01 04:52:00;;;;;;;2.03;1.80;;;;;;;;;;5049279;28;20755;-86
2021/12/01 04:54:28;;;;;;;1.83;1.73;;;;;;;;;;5049800;28;20616;-86
2021/12/01 04:56:58;;;;;;;2.27;2.13;;;;;;;;;;5049317;28;20194;-86
2021/12/01 04:59:25;;;;;;;5.20;2.90;;;;;;;;;;5036473;28;20337;-87
2021/12/01 05:01:54;;;;;;;4.37;2.83;;;;;;;;;;5049303;28;20622;-85
2021/12/01 05:04:22;;;;;;;3.20;2.90;;;;;;;;;;5049797;28;20285;-87
2021/12/01 05:06:49;;;;;;;2.70;2.50;;;;;;;;;;5049190;28;20233;-87
2021/12/01 05:09:17;;;;;;;3.00;2.50;;;;;;;;;;5050109;27;20194;-87
2021/12/01 05:11:44;;;;;;;3.43;2.67;;;;;;;;;;5049550;27;20190;-87
2021/12/01 05:14:14;;;;;;;3.80;3.40;;;;;;;;;;5048911;28;20245;-87
2021/12/01 05:16:41;;;;;;;5.83;3.50;;;;;;;;;;5048903;28;20194;-86
2021/12/01 05:19:10;;;;;;;6.03;3.87;;;;;;;;;;5049121;28;20232;-87
2021/12/01 05:21:37;;;;;;;5.97;2.80;;;;;;;;;;5049757;28;20198;-88
2021/12/01 05:24:05;;;;;;;3.00;2.50;;;;;;;;;;5049844;28;20250;-88
2021/12/01 05:26:33;;;;;;;2.57;2.37;;;;;;;;;;5049489;28;20256;-88
2021/12/01 05:29:00;;;;;;;3.00;2.73;;;;;;;;;;5049635;28;20194;-88
2021/12/01 05:31:29;;;;;;;5.10;3.30;;;;;;;;;;5049567;28;20262;-88
2021/12/01 05:33:56;;;;;;;7.50;6.50;;;;;;;;;;5049896;28;20266;-87
2021/12/01 05:36:23;;;;;;;7.50;6.70;;;;;;;;;;5049511;28;20204;-88
2021/12/01 05:38:51;;;;;;;5.40;4.33;;;;;;;;;;5049402;28;20242;-87
2021/12/01 05:41:18;;;;;;;4.73;3.47;;;;;;;;;;5049442;28;20769;-87
2021/12/01 05:43:45;;;;;;;13.80;10.07;;;;;;;;;;5049557;28;20289;-87
2021/12/01 05:46:13;;;;;;;5.00;4.50;;;;;;;;;;5049501;27;20248;-87
2021/12/01 05:48:42;;;;;;;6.07;5.53;;;;;;;;;;5049409;27;20218;-87
2021/12/01 05:51:10;;;;;;;4.30;3.90;;;;;;;;;;5048979;28;20813;-87
2021/12/01 05:53:37;;;;;;;2.77;2.57;;;;;;;;;;5049094;28;20202;-88
2021/12/01 05:56:05;;;;;;;5.27;4.37;;;;;;;;;;5049962;28;20576;-87
2021/12/01 05:58:32;;;;;;;6.13;5.47;;;;;;;;;;5051815;28;20198;-87
2021/12/01 06:01:00;;;;;;;5.53;4.17;;;;;;;;;;5053110;27;20220;-87
2021/12/01 06:03:28;;;;;;;11.33;10.13;;;;;;;;;;5053094;27;20194;-87
2021/12/01 06:05:57;;;;;;;17.93;15.17;;;;;;;;;;5052776;28;20273;-87
2021/12/01 06:08:25;;;;;;;4.83;4.20;;;;;;;;;;5052763;28;20210;-87
2021/12/01 06:10:52;;;;;;;3.33;3.03;;;;;;;;;;5052745;28;20250;-87
2021/12/01 06:13:21;;;;;;;2.63;2.40;;;;;;;;;;5052682;28;20194;-87
2021/12/01 06:15:49;;;;;;;3.10;2.00;;;;;;;;;;5052610;28;20193;-87
2021/12/01 06:18:16;;;;;;;4.47;3.20;;;;;;;;;;5052649;28;20258;-87
2021/12/01 06:20:43;;;;;;;3.43;3.13;;;;;;;;;;5052479;28;20237;-87
2021/12/01 06:23:13;;;;;;;127.20;47.37;;;;;;;;;;5052420;28;20257;-87
2021/12/01 06:25:40;;;;;;;48.53;26.43;;;;;;;;;;5052770;28;20627;-87
2021/12/01 06:28:08;;;;;;;23.97;17.23;;;;;;;;;;5052598;28;20277;-88
2021/12/01 06:30:36;;;;;;;13.80;10.77;;;;;;;;;;5052387;28;20225;-87
2021/12/01 06:33:04;;;;;;;5.70;4.00;;;;;;;;;;5052203;28;20202;-87
2021/12/01 06:35:32;;;;;;;4.37;3.87;;;;;;;;;;5052347;28;20202;-87
2021/12/01 06:38:02;;;;;;;33.17;22.70;;;;;;;;;;5052500;27;20204;-87
2021/12/01 06:40:31;;;;;;;19.67;10.90;;;;;;;;;;5052114;28;20247;-88
2021/12/01 06:43:00;;;;;;;3.70;3.00;;;;;;;;;;5052461;28;20269;-87
2021/12/01 06:45:27;;;;;;;2.77;2.13;;;;;;;;;;5052281;28;20278;-87
2021/12/01 06:47:55;;;;;;;2.90;2.40;;;;;;;;;;5052124;28;20236;-87
2021/12/01 06:50:23;;;;;;;3.57;3.30;;;;;;;;;;5051850;28;20236;-87
2021/12/01 06:52:50;;;;;;;4.37;3.97;;;;;;;;;;5052060;28;20198;-87
2021/12/01 06:55:20;;;;;;;8.87;6.50;;;;;;;;;;5052019;28;20202;-87
2021/12/01 06:57:49;;;;;;;3.37;2.70;;;;;;;;;;5052078;28;20324;-87
2021/12/01 07:00:18;;;;;;;5.77;3.97;;;;;;;;;;5051960;28;20198;-87
2021/12/01 07:02:45;;;;;;;2.47;2.27;;;;;;;;;;5052284;28;20202;-88
2021/12/01 07:05:13;;;;;;;9.57;5.20;;;;;;;;;;5051988;28;20197;-88
2021/12/01 07:07:41;;;;;;;5.03;4.57;;;;;;;;;;5051292;28;20769;-88
2021/12/01 07:10:11;;;;;;;4.23;2.63;;;;;;;;;;5052023;28;20262;-88
2021/12/01 07:12:38;;;;;;;2.40;2.20;;;;;;;;;;5051942;28;20674;-88
2021/12/01 07:15:08;;;;;;;2.67;2.37;;;;;;;;;;5052247;28;20223;-89
2021/12/01 07:17:36;;;;;;;3.23;2.23;;;;;;;;;;5052361;28;20274;-89
2021/12/01 07:20:05;;;;;;;6.60;6.00;;;;;;;;;;5051982;28;20576;-90
2021/12/01 07:22:32;;;;;;;6.73;4.43;;;;;;;;;;5051882;28;20251;-90
2021/12/01 07:24:59;;;;;;;3.93;2.83;;;;;;;;;;5051859;28;20255;-90
2021/12/01 07:27:27;;;;;;;48.43;26.57;;;;;;;;;;5051638;28;20308;-91
2021/12/01 07:29:54;;;;;;;7.07;5.80;;;;;;;;;;5051772;28;20202;-91
2021/12/01 07:32:23;;;;;;;4.70;3.97;;;;;;;;;;5051679;28;20297;-91
2021/12/01 07:34:50;;;;;;;3.70;3.37;;;;;;;;;;5052037;28;20194;-91
2021/12/01 07:37:18;;;;;;;2.80;2.60;;;;;;;;;;5051290;28;20282;-91
2021/12/01 07:39:46;;;;;;;4.00;3.50;;;;;;;;;;5051313;28;20238;-91
2021/12/01 07:42:14;;;;;;;10.57;7.60;;;;;;;;;;5051790;28;20288;-91
2021/12/01 07:44:42;;;;;;;7.87;6.13;;;;;;;;;;5051957;28;20618;-91
2021/12/01 07:47:11;;;;;;;3.77;3.37;;;;;;;;;;5051754;28;20233;-93
2021/12/01 07:49:40;;;;;;;4.37;3.97;;;;;;;;;;5051518;28;20333;-92
2021/12/01 07:52:08;;;;;;;4.93;4.53;;;;;;;;;;5051502;28;20191;-92
2021/12/01 07:54:36;;;;;;;7.77;4.23;;;;;;;;;;5051801;28;20198;-92
2021/12/01 07:57:03;;;;;;;2.17;2.00;;;;;;;;;;5051414;28;20194;-92
2021/12/01 07:59:31;;;;;;;1.33;1.23;;;;;;;;;;5051250;28;20242;-92
2021/12/01 08:01:59;;;;;;;2.07;1.87;;;;;;;;;;5051150;28;20198;-92
2021/12/01 08:04:26;;;;;;;2.80;2.20;;;;;;;;;;5051345;28;20279;-92
2021/12/01 08:06:56;;;;;;;1.50;1.33;;;;;;;;;;5051316;28;20230;-92
2021/12/01 08:09:25;;;;;;;1.47;1.37;;;;;;;;;;5051565;28;20210;-92
2021/12/01 08:11:53;;;;;;;3.07;1.80;;;;;;;;;;5051322;28;20643;-92
2021/12/01 08:14:20;;;;;;;2.80;2.53;;;;;;;;;;5051281;28;20658;-91
2021/12/01 08:16:48;;;;;;;5.90;5.10;;;;;;;;;;5051228;28;20206;-92
2021/12/01 08:19:15;;;;;;;2.50;1.80;;;;;;;;;;5051106;28;20225;-92
2021/12/01 08:21:49;;;;;;;1.60;1.50;;;;;;;;;;5050340;28;20197;-92
2021/12/01 08:24:18;;;;;;;2.97;2.67;;;;;;;;;;5051086;28;20178;-93
2021/12/01 08:26:46;;;;;;;1.93;1.83;;;;;;;;;;5050900;28;20297;-93
2021/12/01 08:29:13;;;;;;;2.40;2.20;;;;;;;;;;5050815;28;20218;-92
2021/12/01 08:31:41;;;;;;;2.27;1.73;;;;;;;;;;5051128;28;20194;-91
2021/12/01 08:34:09;;;;;;;2.10;2.00;;;;;;;;;;5051311;28;20397;-93
2021/12/01 08:36:36;;;;;;;2.17;1.93;;;;;;;;;;5050728;28;20194;-91
2021/12/01 08:39:04;;;;;;;2.00;1.90;;;;;;;;;;5051040;28;20736;-93
2021/12/01 08:41:36;;;;;;;2.20;2.00;;;;;;;;;;5050541;28;20731;-92
2021/12/01 08:44:03;;;;;;;1.90;1.70;;;;;;;;;;5050986;28;20693;-92
2021/12/01 08:46:31;;;;;;;2.83;2.63;;;;;;;;;;5050931;28;20226;-92
2021/12/01 08:48:59;;;;;;;4.40;2.77;;;;;;;;;;5050819;28;20247;-94
2021/12/01 08:51:28;;;;;;;3.63;2.97;;;;;;;;;;5050351;28;20779;-94
2021/12/01 08:53:55;;;;;;;4.20;3.10;;;;;;;;;;5050538;28;20196;-92
2021/12/01 08:56:22;;;;;;;4.87;2.83;;;;;;;;;;5050647;28;20221;-93
2021/12/01 08:58:51;;;;;;;4.77;2.70;;;;;;;;;;5050239;28;20666;-94
2021/12/01 09:01:18;;;;;;;6.00;2.43;;;;;;;;;;5050356;28;20225;-93
2021/12/01 09:03:45;;;;;;;3.53;2.43;;;;;;;;;;5050199;28;20289;-93
2021/12/01 09:06:13;;;;;;;1.57;1.30;;;;;;;;;;5050293;28;20254;-92
2021/12/01 09:08:40;;;;;;;1.93;1.50;;;;;;;;;;5050703;28;20229;-93
2021/12/01 09:11:08;;;;;;;1.53;1.43;;;;;;;;;;5050405;27;20194;-92
2021/12/01 09:13:37;;;;;;;1.63;1.43;;;;;;;;;;5050269;28;20190;-95
2021/12/01 09:16:06;;;;;;;1.40;1.30;;;;;;;;;;5050101;28;20244;-93
2021/12/01 09:18:34;;;;;;;1.37;1.27;;;;;;;;;;5050216;28;20204;-93
2021/12/01 09:21:02;;;;;;;1.67;1.43;;;;;;;;;;5050365;28;20198;-93
2021/12/01 09:23:29;;;;;;;2.63;1.70;;;;;;;;;;5050296;28;20285;-92
2021/12/01 09:25:57;;;;;;;1.97;1.70;;;;;;;;;;5050410;28;20202;-93
2021/12/01 09:28:26;;;;;;;1.77;1.67;;;;;;;;;;5049935;28;20218;-94
2021/12/01 09:30:54;;;;;;;2.30;1.10;;;;;;;;;;5049457;28;20244;-93
2021/12/01 09:33:23;;;;;;;1.60;1.50;;;;;;;;;;5050059;28;20223;-93
2021/12/01 09:35:51;;;;;;;3.93;2.63;;;;;;;;;;5050259;28;20214;-93
2021/12/01 09:38:19;;;;;;;1.40;1.30;;;;;;;;;;5050037;28;20252;-92
2021/12/01 09:40:49;;;;;;;1.97;1.87;;;;;;;;;;5050138;28;20262;-92
2021/12/01 09:43:18;;;;;;;2.63;2.10;;;;;;;;;;5049935;28;20261;-93
2021/12/01 09:45:47;;;;;;;11.10;8.17;;;;;;;;;;5049669;28;20194;-93
2021/12/01 09:48:14;;;;;;;3.13;2.93;;;;;;;;;;5049584;28;20282;-94
2021/12/01 09:50:43;;;;;;;2.47;2.27;;;;;;;;;;5049667;28;20229;-95
2021/12/01 09:53:12;;;;;;;2.20;2.00;;;;;;;;;;5049986;27;20241;-94
2021/12/01 09:55:41;;;;;;;2.10;1.90;;;;;;;;;;5050338;28;20622;-94
2021/12/01 09:58:11;;;;;;;2.60;2.40;;;;;;;;;;5049755;28;20198;-93
2021/12/01 10:00:40;;;;;;;2.60;1.70;;;;;;;;;;5049792;28;20197;-94
2021/12/01 10:03:08;;;;;;;3.20;1.63;;;;;;;;;;5049842;28;20254;-94
2021/12/01 10:05:50;;;;;;;2.07;1.87;;;;;;;;;;5049938;28;20206;-93
2021/12/01 10:08:24;;;;;;;1.90;1.70;;;;;;;;;;5049084;27;20689;-92
2021/12/01 10:10:51;;;;;;;1.67;1.50;;;;;;;;;;5049505;28;20646;-93
2021/12/01 10:13:25;;;;;;;2.03;1.60;;;;;;;;;;5029543;28;20237;-94
2021/12/01 10:15:54;;;;;;;2.67;1.70;;;;;;;;;;5029513;28;20640;-92
2021/12/01 10:18:21;;;;;;;1.37;1.20;;;;;;;;;;5029549;28;20228;-92
2021/12/01 10:21:05;;;;;;;2.17;1.97;;;;;;;;;;5029780;28;20191;-92
2021/12/01 10:23:33;;;;;;;4.03;2.30;;;;;;;;;;5029814;28;20198;-93
2021/12/01 10:26:11;;;;;;;2.20;1.57;;;;;;;;;;5029370;28;20592;-92
2021/12/01 10:28:41;;;;;;;1.70;1.60;;;;;;;;;;5029489;28;20240;-93
2021/12/01 10:31:09;;;;;;;2.97;1.53;;;;;;;;;;5029620;28;20278;-92
2021/12/01 10:33:36;;;;;;;2.30;2.10;;;;;;;;;;5041083;28;20202;-92
2021/12/01 10:36:07;;;;;;;1.80;1.70;;;;;;;;;;5049350;28;20223;-93
2021/12/01 10:38:37;;;;;;;2.20;1.70;;;;;;;;;;5049386;28;20254;-92
2021/12/01 10:41:08;;;;;;;1.90;1.50;;;;;;;;;;5049005;28;20218;-93
2021/12/01 10:43:37;;;;;;;1.77;1.67;;;;;;;;;;5050769;28;20190;-93
2021/12/01 10:46:07;;;;;;;2.17;1.63;;;;;;;;;;5052734;28;20654;-93
2021/12/01 10:48:35;;;;;;;1.87;1.70;;;;;;;;;;5052555;27;20240;-92
2021/12/01 10:51:03;;;;;;;2.13;1.87;;;;;;;;;;5052292;28;20229;-93
2021/12/01 10:53:31;;;;;;;1.77;1.67;;;;;;;;;;5052773;28;20225;-92
2021/12/01 10:56:01;;;;;;;5.13;3.20;;;;;;;;;;5052688;28;20289;-93
2021/12/01 10:58:36;;;;;;;2.93;2.67;;;;;;;;;;5052721;28;20198;-92
2021/12/01 11:01:04;;;;;;;4.40;2.80;;;;;;;;;;5052222;28;20244;-92
2021/12/01 11:03:35;;;;;;;1.67;1.57;;;;;;;;;;5052588;28;20724;-92
2021/12/01 11:06:14;;;;;;;1.50;1.40;;;;;;;;;;5052169;28;20267;-93
2021/12/01 11:08:43;;;;;;;2.57;1.93;;;;;;;;;;5052340;28;20309;-93
2021/12/01 11:11:12;;;;;;;1.87;1.40;;;;;;;;;;5052319;28;20241;-92
2021/12/01 11:13:42;;;;;;;1.20;1.10;;;;;;;;;;5052359;28;20671;-92
2021/12/01 11:16:11;;;;;;;1.30;1.17;;;;;;;;;;5052318;28;20199;-92
2021/12/01 11:18:41;;;;;;;1.47;1.20;;;;;;;;;;5052406;27;20205;-93
2021/12/01 11:21:10;;;;;;;0.90;0.90;;;;;;;;;;5052244;27;20635;-92
2021/12/01 11:23:39;;;;;;;1.47;1.20;;;;;;;;;;5051995;28;20281;-92
2021/12/01 11:26:10;;;;;;;10.90;1.83;;;;;;;;;;5051964;28;20627;-92
2021/12/01 11:28:40;;;;;;;1.20;1.10;;;;;;;;;;5051930;28;20754;-92
2021/12/01 11:31:09;;;;;;;0.90;0.90;;;;;;;;;;5051918;28;20276;-92
2021/12/01 11:33:43;;;;;;;0.80;0.80;;;;;;;;;;5052096;28;20267;-92
2021/12/01 11:36:11;;;;;;;1.20;1.10;;;;;;;;;;5051971;27;20202;-92
2021/12/01 11:38:38;;;;;;;1.23;1.20;;;;;;;;;;5052073;28;20211;-92
2021/12/01 11:41:08;;;;;;;1.13;1.10;;;;;;;;;;5052099;28;20638;-92
2021/12/01 11:43:37;;;;;;;1.20;1.10;;;;;;;;;;5051694;28;20193;-93
2021/12/01 11:46:07;;;;;;;1.33;1.23;;;;;;;;;;5051659;28;20294;-92
2021/12/01 11:48:36;;;;;;;0.80;0.80;;;;;;;;;;5051812;28;20764;-92
2021/12/01 11:51:11;;;;;;;1.50;1.40;;;;;;;;;;5051437;28;20665;-92
2021/12/01 11:53:42;;;;;;;1.13;1.07;;;;;;;;;;5051272;28;20215;-92
2021/12/01 11:56:16;;;;;;;2.17;1.37;;;;;;;;;;5051713;28;20192;-92
2021/12/01 11:58:49;;;;;;;1.23;0.90;;;;;;;;;;5051407;28;20275;-92
2021/12/01 12:01:40;;;;;;;1.47;1.37;;;;;;;;;;5051329;28;20187;-92
2021/12/01 12:04:39;;;;;;;1.07;1.07;;;;;;;;;;5051662;28;20185;-91
2021/12/01 12:07:09;;;;;;;1.53;1.43;;;;;;;;;;5050675;28;20230;-92
2021/12/01 12:09:37;;;;;;;1.50;1.00;;;;;;;;;;5051247;28;20192;-92
2021/12/01 12:12:17;;;;;;;2.93;1.77;;;;;;;;;;5051492;28;20199;-92
2021/12/01 12:14:54;;;;;;;0.93;0.93;;;;;;;;;;5051176;28;20226;-92
2021/12/01 12:17:34;;;;;;;1.83;1.57;;;;;;;;;;5051233;28;20247;-92
2021/12/01 12:20:10;;;;;;;1.50;1.40;;;;;;;;;;5051253;28;20725;-92
2021/12/01 12:23:01;;;;;;;4.17;2.27;;;;;;;;;;5051139;27;20197;-91
2021/12/01 12:25:45;;;;;;;1.50;1.40;;;;;;;;;;5051080;28;20262;-91
2021/12/01 12:28:29;;;;;;;1.37;1.27;;;;;;;;;;5051023;28;20236;-92
2021/12/01 12:30:58;;;;;;;3.30;1.60;;;;;;;;;;5051250;28;20202;-92
2021/12/01 12:33:27;;;;;;;2.47;2.10;;;;;;;;;;5051153;28;20219;-92
2021/12/01 12:35:57;;;;;;;2.00;1.90;;;;;;;;;;5050758;28;20260;-92
2021/12/01 12:38:24;;;;;;;1.30;1.20;;;;;;;;;;5050904;28;20200;-92
2021/12/01 12:41:06;;;;;;;2.03;1.00;;;;;;;;;;5050489;28;20673;-92
2021/12/01 12:43:37;;;;;;;4.07;1.90;;;;;;;;;;5050725;28;20190;-91
2021/12/01 12:46:09;;;;;;;1.00;1.00;;;;;;;;;;5050631;28;20230;-93
2021/12/01 12:48:37;;;;;;;1.23;1.10;;;;;;;;;;5050413;28;20224;-92
2021/12/01 12:51:30;;;;;;;1.77;1.67;;;;;;;;;;5050350;28;20236;-91
2021/12/01 12:54:17;;;;;;;1.73;1.60;;;;;;;;;;5050666;28;20188;-92
2021/12/01 12:56:51;;;;;;;1.80;1.70;;;;;;;;;;5050671;27;20198;-91
2021/12/01 12:59:22;;;;;;;1.97;1.40;;;;;;;;;;5051327;27;20685;-92
2021/12/01 13:01:52;;;;;;;1.37;1.27;;;;;;;;;;5050669;28;20277;-92
2021/12/01 13:04:54;;;;;;;1.87;1.67;;;;;;;;;;5050614;28;20269;-93
2021/12/01 13:07:45;;;;;;;1.77;1.67;;;;;;;;;;5049566;28;20198;-92
2021/12/01 13:10:16;;;;;;;1.70;0.90;;;;;;;;;;5050351;28;20229;-92
2021/12/01 13:12:49;;;;;;;1.53;1.43;;;;;;;;;;5050300;28;20223;-91
2021/12/01 13:15:23;;;;;;;3.43;1.40;;;;;;;;;;5050534;28;20222;-92
2021/12/01 13:17:51;;;;;;;0.90;0.90;;;;;;;;;;5050191;28;20221;-92
2021/12/01 13:20:19;;;;;;;1.07;1.03;;;;;;;;;;5050046;28;20200;-91
2021/12/01 13:23:04;;;;;;;8.07;4.20;;;;;;;;;;5050397;28;20200;-91
2021/12/01 13:25:32;;;;;;;3.70;3.03;;;;;;;;;;5050288;28;20251;-91
2021/12/01 13:28:03;;;;;;;4.97;2.63;;;;;;;;;;5049652;28;20226;-91
2021/12/01 13:30:32;;;;;;;2.63;1.57;;;;;;;;;;5050609;28;20628;-93
2021/12/01 13:33:08;;;;;;;3.90;1.80;;;;;;;;;;5050199;28;20197;-93
2021/12/01 13:35:36;;;;;;;1.90;1.30;;;;;;;;;;5050018;28;20238;-91
2021/12/01 13:38:04;;;;;;;6.10;2.23;;;;;;;;;;5050124;28;20321;-92
2021/12/01 13:40:31;;;;;;;1.83;1.50;;;;;;;;;;5050083;28;20297;-91
2021/12/01 13:42:59;;;;;;;2.40;1.90;;;;;;;;;;5049946;28;20206;-92
2021/12/01 13:45:28;;;;;;;4.00;1.90;;;;;;;;;;5049847;28;20273;-91
2021/12/01 13:47:56;;;;;;;2.10;1.90;;;;;;;;;;5049653;28;20217;-92
2021/12/01 13:50:24;;;;;;;2.80;2.60;;;;;;;;;;5049750;28;20282;-92
2021/12/01 13:52:54;;;;;;;3.30;2.30;;;;;;;;;;5049976;28;20190;-91
2021/12/01 13:55:25;;;;;;;1.67;1.57;;;;;;;;;;5049743;28;20271;-92
2021/12/01 13:57:54;;;;;;;2.03;1.43;;;;;;;;;;5049758;28;20658;-92
2021/12/01 14:00:33;;;;;;;3.20;1.80;;;;;;;;;;5049694;28;20288;-92
2021/12/01 14:03:02;;;;;;;1.47;1.10;;;;;;;;;;5049571;28;20186;-91
2021/12/01 14:05:29;;;;;;;1.73;1.63;;;;;;;;;;5049436;28;20194;-91
2021/12/01 14:07:59;;;;;;;1.57;1.30;;;;;;;;;;5049495;28;20248;-91
2021/12/01 14:10:41;;;;;;;3.20;2.90;;;;;;;;;;5049994;28;20734;-92
2021/12/01 14:13:09;;;;;;;6.27;4.33;;;;;;;;;;5049569;28;20198;-91
2021/12/01 14:15:39;;;;;;;2.27;2.07;;;;;;;;;;5049749;28;20194;-92
2021/12/01 14:18:10;;;;;;;1.90;1.73;;;;;;;;;;5052310;28;20213;-91
2021/12/01 14:20:38;;;;;;;3.70;3.23;;;;;;;;;;5053270;28;20714;-93
2021/12/01 14:23:05;;;;;;;5.03;2.80;;;;;;;;;;5053156;28;20551;-91
2021/12/01 14:25:33;;;;;;;2.30;1.90;;;;;;;;;;5053350;27;20209;-91
2021/12/01 14:28:06;;;;;;;9.83;5.73;;;;;;;;;;5052939;28;20232;-91
2021/12/01 14:30:34;;;;;;;2.67;2.27;;;;;;;;;;5053000;28;20194;-92
2021/12/01 14:33:01;;;;;;;1.60;1.50;;;;;;;;;;5052996;28;20210;-91
2021/12/01 14:35:30;;;;;;;3.50;3.20;;;;;;;;;;5052881;28;20189;-91
2021/12/01 14:38:07;;;;;;;26.57;18.77;;;;;;;;;;5052727;28;20258;-91
2021/12/01 14:40:43;;;;;;;10.33;7.87;;;;;;;;;;5052690;28;20225;-92
2021/12/01 14:43:10;;;;;;;11.57;8.03;;;;;;;;;;5052793;28;20186;-92
2021/12/01 14:45:37;;;;;;;6.07;3.57;;;;;;;;;;5052712;28;20201;-92
2021/12/01 14:48:06;;;;;;;12.87;9.80;;;;;;;;;;5052633;28;20225;-89
2021/12/01 14:50:37;;;;;;;11.13;7.43;;;;;;;;;;5052554;28;20678;-92
2021/12/01 14:53:11;;;;;;;13.10;11.73;;;;;;;;;;5052539;28;20210;-91
2021/12/01 14:55:41;;;;;;;31.17;28.17;;;;;;;;;;5052386;28;20238;-92
2021/12/01 14:58:10;;;;;;;6.30;4.60;;;;;;;;;;5053275;28;20247;-92
2021/12/01 15:00:39;;;;;;;3.03;2.50;;;;;;;;;;5052327;28;20202;-92